createdAt,value
2022-12-08T00:02:18.545Z,1.63
2022-12-08T00:07:40.258Z,1.40
2022-12-08T00:12:43.389Z,1.75
2022-12-08T00:17:46.531Z,1.75
2022-12-08T00:22:49.690Z,2.35
2022-12-08T00:27:52.762Z,1.63
2022-12-08T00:32:55.754Z,2.50
2022-12-08T00:38:00.931Z,1.20
2022-12-08T00:43:04.328Z,2.92
2022-12-08T00:48:07.641Z,1.55
2022-12-08T00:53:10.620Z,1.13
2022-12-08T00:58:13.656Z,1.40
2022-12-08T01:03:18.053Z,1.38
2022-12-08T01:08:21.168Z,1.10
2022-12-08T01:13:24.230Z,2.13
2022-12-08T01:18:28.599Z,1.85
2022-12-08T01:23:31.882Z,1.90
2022-12-08T01:28:35.181Z,1.40
2022-12-08T01:33:38.393Z,2.60
2022-12-08T01:38:41.500Z,0.63
2022-12-08T01:44:11.222Z,0.90
2022-12-08T01:49:18.852Z,1.20
2022-12-08T01:54:26.851Z,1.33
2022-12-08T01:59:33.358Z,0.85
2022-12-08T02:04:36.577Z,2.30
2022-12-08T02:09:41.039Z,1.38
2022-12-08T02:14:44.206Z,2.88
2022-12-08T02:19:56.466Z,0.60
2022-12-08T02:25:08.875Z,1.50
2022-12-08T02:30:47.701Z,1.88
2022-12-08T02:36:02.607Z,1.20
2022-12-08T02:41:11.634Z,1.88
2022-12-08T02:46:22.371Z,1.70
2022-12-08T02:51:25.614Z,3.58
2022-12-08T02:57:03.812Z,2.55
2022-12-08T03:02:42.869Z,2.83
2022-12-08T03:13:15.031Z,1.52
2022-12-08T03:18:22.799Z,2.10
2022-12-08T03:23:27.077Z,2.88
2022-12-08T03:28:30.508Z,2.40
2022-12-08T03:33:38.080Z,1.40
2022-12-08T03:38:44.160Z,3.72
2022-12-08T03:43:50.985Z,1.67
2022-12-08T03:48:54.368Z,2.53
2022-12-08T03:53:57.532Z,2.03
2022-12-08T03:59:01.231Z,2.40
2022-12-08T04:04:04.777Z,1.55
2022-12-08T04:09:07.938Z,2.47
2022-12-08T04:14:11.022Z,2.90
2022-12-08T04:19:14.039Z,3.13
2022-12-08T04:24:17.071Z,3.58
2022-12-08T04:29:20.275Z,2.47
2022-12-08T04:34:23.442Z,3.67
2022-12-08T04:39:26.466Z,2.20
2022-12-08T04:44:29.558Z,2.42
2022-12-08T04:50:07.140Z,2.45
2022-12-08T04:55:19.038Z,4.03
2022-12-08T05:00:22.187Z,4.90
2022-12-08T05:05:51.134Z,2.90
2022-12-08T05:10:54.289Z,3.88
2022-12-08T05:16:07.438Z,2.78
2022-12-08T05:21:11.281Z,3.58
2022-12-08T05:26:14.358Z,3.95
2022-12-08T05:31:18.327Z,2.72
2022-12-08T05:36:21.630Z,2.97
2022-12-08T05:46:41.875Z,5.10
2022-12-08T05:51:45.619Z,4.05
2022-12-08T05:56:49.544Z,4.60
2022-12-08T06:07:16.206Z,4.10
2022-12-08T06:12:19.586Z,4.43
2022-12-08T06:17:22.640Z,3.35
2022-12-08T06:22:26.331Z,2.97
2022-12-08T06:27:29.603Z,3.50
2022-12-08T06:32:32.734Z,2.72
2022-12-08T06:37:35.919Z,4.93
2022-12-08T06:42:45.087Z,2.70
2022-12-08T06:47:48.196Z,3.85
2022-12-08T06:53:01.104Z,4.95
2022-12-08T06:58:08.092Z,5.43
2022-12-08T07:03:12.779Z,4.22
2022-12-08T07:08:16.088Z,2.70
2022-12-08T07:13:19.265Z,3.65
2022-12-08T07:18:22.449Z,3.75
2022-12-08T07:23:25.625Z,2.60
2022-12-08T07:28:32.116Z,4.13
2022-12-08T07:33:36.414Z,2.15
2022-12-08T07:38:39.935Z,3.60
2022-12-08T07:43:43.658Z,3.53
2022-12-08T07:48:48.956Z,6.40
2022-12-08T07:53:54.416Z,4.93
2022-12-08T07:58:58.044Z,3.08
2022-12-08T08:04:04.852Z,3.25
2022-12-08T08:09:09.158Z,3.50
2022-12-08T08:14:13.307Z,2.88
2022-12-08T08:19:16.384Z,3.85
2022-12-08T08:24:20.609Z,3.47
2022-12-08T08:29:23.978Z,4.10
2022-12-08T08:34:27.111Z,4.75
2022-12-08T08:39:32.197Z,5.13
2022-12-08T08:44:35.809Z,4.03
2022-12-08T08:49:42.844Z,2.60
2022-12-08T08:54:46.194Z,5.40
2022-12-08T08:59:49.251Z,2.47
2022-12-08T09:04:52.633Z,3.88
2022-12-08T09:10:00.011Z,2.75
2022-12-08T09:15:06.710Z,4.90
2022-12-08T09:20:09.996Z,2.70
2022-12-08T09:25:13.385Z,1.85
2022-12-08T09:30:16.679Z,2.15
2022-12-08T09:35:19.858Z,3.28
2022-12-08T09:40:24.574Z,3.97
2022-12-08T09:45:30.852Z,3.15
2022-12-08T09:50:44.103Z,3.58
2022-12-08T09:56:03.944Z,5.32
2022-12-08T10:12:29.600Z,3.78
2022-12-08T10:17:41.230Z,3.38
2022-12-08T10:22:46.611Z,3.35
2022-12-08T10:27:54.435Z,2.45
2022-12-08T10:32:57.846Z,3.47
2022-12-08T10:38:02.796Z,4.00
2022-12-08T10:43:07.262Z,2.33
2022-12-08T10:48:33.549Z,4.35
2022-12-08T10:53:46.816Z,3.33
2022-12-08T10:58:50.057Z,4.40
2022-12-08T11:03:57.300Z,2.30
2022-12-08T11:09:04.501Z,4.18
2022-12-08T11:14:09.311Z,3.90
2022-12-08T11:19:20.322Z,3.15
2022-12-08T11:24:37.366Z,3.65
2022-12-08T11:29:41.518Z,2.95
2022-12-08T11:35:04.152Z,3.88
2022-12-08T11:40:16.609Z,3.88
2022-12-08T11:45:30.509Z,3.10
2022-12-08T11:50:48.192Z,3.30
2022-12-08T11:55:57.538Z,3.70
2022-12-08T12:01:01.417Z,4.18
2022-12-08T12:06:54.292Z,2.45
2022-12-08T12:12:19.563Z,4.43
2022-12-08T12:23:06.335Z,2.33
2022-12-08T12:28:13.610Z,2.90
2022-12-08T12:33:18.541Z,3.75
2022-12-08T12:38:40.269Z,3.05
2022-12-08T12:44:09.412Z,3.78
2022-12-08T12:49:40.352Z,3.95
2022-12-08T12:54:45.475Z,2.40
2022-12-08T12:59:55.849Z,3.58
2022-12-08T13:05:02.615Z,2.78
2022-12-08T13:10:20.418Z,4.70
2022-12-08T13:15:23.480Z,2.67
2022-12-08T13:20:26.895Z,2.95
2022-12-08T13:25:45.144Z,2.40
2022-12-08T13:30:55.502Z,4.22
2022-12-08T13:36:11.986Z,3.92
2022-12-08T13:41:25.040Z,2.67
2022-12-08T13:57:52.393Z,2.15
2022-12-08T14:03:01.682Z,3.47
2022-12-08T14:08:50.434Z,2.53
2022-12-08T14:13:42.688Z,4.15
2022-12-08T14:18:45.813Z,2.22
2022-12-08T14:23:49.049Z,2.60
2022-12-08T14:28:52.286Z,3.42
2022-12-08T14:33:56.686Z,3.85
2022-12-08T14:39:00.040Z,4.22
2022-12-08T14:44:03.638Z,2.90
2022-12-08T14:49:39.633Z,4.03
2022-12-08T14:54:43.991Z,3.05
2022-12-08T14:59:48.508Z,4.80
2022-12-08T15:05:12.420Z,3.45
2022-12-08T15:10:15.538Z,3.00
2022-12-08T15:15:18.867Z,3.47
2022-12-08T15:20:45.901Z,4.03
2022-12-08T15:25:49.653Z,3.03
2022-12-08T15:30:54.047Z,2.90
2022-12-08T15:35:57.215Z,3.28
2022-12-08T15:41:00.321Z,3.47
2022-12-08T15:46:05.241Z,3.53
2022-12-08T15:51:08.401Z,3.92
2022-12-08T15:56:29.586Z,3.58
2022-12-08T16:01:32.755Z,4.03
2022-12-08T16:12:17.665Z,2.92
2022-12-08T16:17:21.606Z,4.18
2022-12-08T16:33:16.684Z,1.67
2022-12-08T16:38:19.778Z,2.42
2022-12-08T16:43:22.867Z,2.70
2022-12-08T16:48:25.941Z,2.25
2022-12-08T16:53:29.020Z,3.10
2022-12-08T16:58:32.099Z,2.53
2022-12-08T17:03:35.302Z,1.30
2022-12-08T17:08:40.083Z,1.20
2022-12-08T17:13:43.196Z,2.97
2022-12-08T17:18:47.902Z,2.47
2022-12-08T17:23:51.092Z,2.17
2022-12-08T17:29:01.772Z,3.78
2022-12-08T17:34:09.901Z,2.63
2022-12-08T17:39:18.352Z,2.50
2022-12-08T17:44:22.044Z,2.53
2022-12-08T17:49:26.545Z,2.97
2022-12-08T17:54:30.275Z,2.17
2022-12-08T17:59:33.769Z,2.38
2022-12-08T18:04:37.127Z,1.90
2022-12-08T18:09:40.237Z,1.00
2022-12-08T18:14:43.401Z,1.45
2022-12-08T18:19:46.585Z,2.13
2022-12-08T18:24:49.712Z,1.08
2022-12-08T18:29:52.822Z,1.80
2022-12-08T18:34:55.925Z,1.13
2022-12-08T18:39:59.053Z,1.02
2022-12-08T18:45:07.195Z,1.90
2022-12-08T18:50:12.351Z,1.17
2022-12-08T18:55:16.282Z,0.68
2022-12-08T19:00:20.175Z,1.13
2022-12-08T19:05:23.247Z,1.00
2022-12-08T19:10:26.666Z,1.02
2022-12-08T19:15:30.463Z,1.10
2022-12-08T19:20:33.731Z,0.45
2022-12-08T19:25:36.806Z,0.98
2022-12-08T19:30:39.880Z,1.60
2022-12-08T19:35:47.513Z,1.45
2022-12-08T19:41:12.037Z,0.90
2022-12-08T19:46:15.293Z,0.95
2022-12-08T19:51:18.474Z,1.30
2022-12-08T20:01:40.298Z,1.17
2022-12-08T20:12:02.801Z,0.40
2022-12-08T20:17:05.925Z,0.57
2022-12-08T20:22:09.236Z,0.80
2022-12-08T20:27:16.396Z,1.38
2022-12-08T20:32:20.394Z,1.00
2022-12-08T20:37:23.500Z,0.80
2022-12-08T20:42:26.549Z,0.60
2022-12-08T20:47:29.679Z,0.60
2022-12-08T20:52:32.824Z,0.63
2022-12-08T20:57:36.120Z,0.82
2022-12-08T21:02:45.166Z,0.98
2022-12-08T21:07:50.202Z,0.85
2022-12-08T21:12:53.309Z,0.95
2022-12-08T21:17:56.596Z,0.40
2022-12-08T21:22:59.743Z,0.77
2022-12-08T21:28:02.833Z,0.70
2022-12-08T21:33:06.693Z,0.70
2022-12-08T21:38:10.298Z,0.98
2022-12-08T21:43:14.040Z,0.28
2022-12-08T21:48:17.377Z,1.48
2022-12-08T21:53:26.664Z,1.02
2022-12-08T21:58:32.303Z,1.33
2022-12-08T22:03:39.845Z,2.78
2022-12-08T22:08:43.372Z,1.20
2022-12-08T22:13:46.678Z,1.63
2022-12-08T22:18:50.332Z,0.73
2022-12-08T22:23:53.425Z,1.55
2022-12-08T22:28:56.591Z,1.25
2022-12-08T22:34:00.030Z,0.88
2022-12-08T22:39:04.242Z,1.00
2022-12-08T22:44:08.075Z,1.30
2022-12-08T22:49:11.223Z,1.38
2022-12-08T22:54:14.266Z,1.08
2022-12-08T22:59:17.419Z,1.65
2022-12-08T23:04:20.720Z,0.85
2022-12-08T23:09:24.076Z,1.42
2022-12-08T23:14:27.302Z,1.20
2022-12-08T23:19:30.589Z,1.17
2022-12-08T23:24:33.910Z,1.73
2022-12-08T23:29:37.957Z,1.23
2022-12-08T23:34:41.015Z,1.10
2022-12-08T23:39:44.072Z,1.00
2022-12-08T23:44:47.155Z,1.48
2022-12-08T23:49:50.398Z,1.27
2022-12-08T23:54:55.081Z,1.85
2022-12-08T23:59:58.380Z,1.88
